Time;durP1;ratioP1;P1;durP2;ratioP2;P2;SDS_P1;SDS_P2;PMS_P1;PMS_P2;Temp;Humidity;BMP_temperature;BMP_pressure;BME280_temperature;BME280_humidity;BME280_pressure;Samples;Min_cycle;Max_cycle;Signal;HPM_P1;HPM_P2
2021/05/22 00:00:14;;;;;;;2.72;2.47;;;;;15.50;99972.00;;;;5069076;28;20662;-71
2021/05/22 00:02:40;;;;;;;2.95;2.00;;;;;15.40;99995.00;;;;5069091;28;20063;-73
2021/05/22 00:05:09;;;;;;;2.20;1.60;;;;;15.40;99984.00;;;;5068310;28;20036;-73
2021/05/22 00:07:36;;;;;;;3.50;1.48;;;;;15.50;99971.00;;;;5069160;28;20056;-70
2021/05/22 00:10:06;;;;;;;2.28;1.35;;;;;15.60;99965.00;;;;5069282;28;20667;-71
2021/05/22 00:12:32;;;;;;;2.42;1.25;;;;;15.50;99936.00;;;;5068646;28;20025;-76
2021/05/22 00:14:59;;;;;;;1.83;1.05;;;;;15.50;99903.00;;;;5067456;28;20191;-72
2021/05/22 00:17:25;;;;;;;27.75;20.42;;;;;15.50;99924.00;;;;5068433;28;20028;-75
2021/05/22 00:19:52;;;;;;;2.42;1.77;;;;;15.60;99958.00;;;;5068082;28;20106;-72
2021/05/22 00:22:18;;;;;;;2.50;2.28;;;;;15.50;99964.00;;;;5069253;28;20072;-69
2021/05/22 00:24:45;;;;;;;3.30;2.00;;;;;15.50;100015.00;;;;5070239;28;20107;-71
2021/05/22 00:27:11;;;;;;;2.30;1.88;;;;;15.60;100042.00;;;;5068689;28;20557;-73
2021/05/22 00:29:38;;;;;;;5.70;4.95;;;;;15.60;100033.00;;;;5068310;28;20027;-71
2021/05/22 00:32:05;;;;;;;3.50;3.15;;;;;15.60;100035.00;;;;5068659;28;20037;-73
2021/05/22 00:34:32;;;;;;;4.20;1.58;;;;;15.50;100044.00;;;;5068107;28;20706;-71
2021/05/22 00:36:58;;;;;;;1.00;0.90;;;;;15.50;100045.00;;;;5064824;28;20051;-71
2021/05/22 00:39:25;;;;;;;2.00;1.55;;;;;15.50;100081.00;;;;5068228;28;20032;-73
2021/05/22 00:41:51;;;;;;;3.78;1.60;;;;;15.50;100067.00;;;;5067741;28;20025;-73
2021/05/22 00:44:18;;;;;;;5.10;1.67;;;;;15.40;100053.00;;;;5067724;28;20064;-75
2021/05/22 00:46:44;;;;;;;2.25;1.40;;;;;15.40;100046.00;;;;5067785;28;20505;-74
2021/05/22 00:49:11;;;;;;;3.22;1.67;;;;;15.40;100055.00;;;;5068155;28;20456;-71
2021/05/22 00:51:38;;;;;;;1.45;1.35;;;;;15.50;100060.00;;;;5068273;28;20035;-75
2021/05/22 00:54:06;;;;;;;2.97;1.00;;;;;15.50;100091.00;;;;5067734;28;20040;-71
2021/05/22 00:56:32;;;;;;;1.65;1.45;;;;;15.50;100092.00;;;;5067350;28;20029;-72
2021/05/22 00:58:59;;;;;;;2.55;1.48;;;;;15.40;100089.00;;;;5068170;28;20028;-73
2021/05/22 01:01:26;;;;;;;3.88;1.83;;;;;15.40;100119.00;;;;5066481;28;20032;-69
2021/05/22 01:03:53;;;;;;;3.72;1.90;;;;;15.40;100128.00;;;;5068040;28;20028;-71
2021/05/22 01:06:29;;;;;;;4.78;1.80;;;;;15.40;100129.00;;;;5066449;28;20154;-75
2021/05/22 01:09:07;;;;;;;13.40;2.20;;;;;15.40;100089.00;;;;5066412;28;20039;-72
2021/05/22 01:11:40;;;;;;;10.65;2.30;;;;;15.40;100095.00;;;;5065434;28;20031;-73
2021/05/22 01:14:11;;;;;;;10.48;2.72;;;;;15.40;100059.00;;;;5066950;28;20037;-71
2021/05/22 01:16:41;;;;;;;3.85;1.63;;;;;15.40;100038.00;;;;5067109;28;20075;-74
2021/05/22 01:19:12;;;;;;;7.43;1.52;;;;;15.40;100028.00;;;;5067078;28;20036;-74
2021/05/22 01:21:39;;;;;;;3.65;1.35;;;;;15.40;100027.00;;;;5068005;28;20372;-74
2021/05/22 01:24:13;;;;;;;4.38;1.63;;;;;15.50;100033.00;;;;5067396;28;20483;-72
2021/05/22 01:26:41;;;;;;;6.47;1.42;;;;;15.50;100037.00;;;;5067779;28;20929;-72
2021/05/22 01:29:08;;;;;;;2.60;1.23;;;;;15.50;100056.00;;;;5067555;28;20036;-72
2021/05/22 01:31:35;;;;;;;2.35;1.00;;;;;15.50;100088.00;;;;5066939;28;20510;-71
2021/05/22 01:34:02;;;;;;;2.47;1.10;;;;;15.50;100111.00;;;;5066983;28;20029;-75
2021/05/22 01:36:29;;;;;;;4.82;1.33;;;;;15.50;100096.00;;;;5066679;28;20085;-71
2021/05/22 01:38:55;;;;;;;7.00;1.25;;;;;15.50;100113.00;;;;5066825;28;20028;-74
2021/05/22 01:41:22;;;;;;;5.70;1.80;;;;;15.50;100112.00;;;;5067310;28;20025;-72
2021/05/22 01:43:54;;;;;;;6.78;1.42;;;;;15.50;100074.00;;;;5067412;28;20044;-72
2021/05/22 01:46:22;;;;;;;4.95;1.48;;;;;15.50;100051.00;;;;5067542;28;20024;-72
2021/05/22 01:48:50;;;;;;;10.10;1.75;;;;;15.50;100042.00;;;;5066954;28;20075;-74
2021/05/22 01:51:20;;;;;;;1.52;1.10;;;;;15.50;100070.00;;;;5066764;28;20037;-74
2021/05/22 01:53:47;;;;;;;7.57;1.55;;;;;15.60;100079.00;;;;5066449;28;20071;-73
2021/05/22 01:56:15;;;;;;;6.68;1.30;;;;;15.60;100075.00;;;;5067544;28;20094;-70
2021/05/22 01:58:42;;;;;;;2.33;1.05;;;;;15.60;100070.00;;;;5066866;28;20439;-73
2021/05/22 02:01:12;;;;;;;4.05;1.10;;;;;15.60;100070.00;;;;5066608;28;20384;-71
2021/05/22 02:03:47;;;;;;;6.50;1.00;;;;;15.60;100068.00;;;;5066623;28;20017;-71
2021/05/22 02:06:38;;;;;;;7.63;1.30;;;;;15.50;100046.00;;;;5065931;28;20044;-75
2021/05/22 02:09:05;;;;;;;7.63;1.10;;;;;15.50;100032.00;;;;5067499;28;20449;-71
2021/05/22 02:11:41;;;;;;;3.00;1.02;;;;;15.50;100028.00;;;;5066834;28;20056;-72
2021/05/22 02:14:09;;;;;;;3.85;1.20;;;;;15.50;100042.00;;;;5065427;28;20082;-73
2021/05/22 02:16:44;;;;;;;5.47;1.38;;;;;15.60;100045.00;;;;5065718;28;20025;-71
2021/05/22 02:19:11;;;;;;;2.65;1.20;;;;;15.60;100052.00;;;;5066956;28;20035;-73
2021/05/22 02:21:40;;;;;;;2.08;0.82;;;;;15.60;100087.00;;;;5066557;28;20078;-70
2021/05/22 02:24:10;;;;;;;1.05;0.80;;;;;15.60;100108.00;;;;5066340;28;20618;-71
2021/05/22 02:26:37;;;;;;;1.85;1.05;;;;;15.60;100122.00;;;;5066921;28;20032;-74
2021/05/22 02:29:05;;;;;;;2.88;1.30;;;;;15.60;100141.00;;;;5065463;28;20056;-72
2021/05/22 02:31:35;;;;;;;19.25;1.60;;;;;15.60;100155.00;;;;5067090;28;20040;-72
2021/05/22 02:34:04;;;;;;;6.70;1.30;;;;;15.60;100144.00;;;;5066252;28;20071;-70
2021/05/22 02:36:31;;;;;;;11.43;2.08;;;;;15.60;100111.00;;;;5066106;28;20419;-75
2021/05/22 02:39:00;;;;;;;9.15;1.88;;;;;15.50;100093.00;;;;5065441;28;20490;-72
2021/05/22 02:41:28;;;;;;;3.63;1.45;;;;;15.50;100095.00;;;;5064658;28;20086;-73
2021/05/22 02:43:58;;;;;;;4.20;1.20;;;;;15.60;100108.00;;;;5065801;28;20403;-72
2021/05/22 02:46:25;;;;;;;4.43;1.23;;;;;15.60;100123.00;;;;5066159;28;20056;-74
2021/05/22 02:48:55;;;;;;;13.23;1.65;;;;;15.60;100126.00;;;;5066302;28;20028;-70
2021/05/22 02:51:24;;;;;;;2.90;1.00;;;;;15.60;100124.00;;;;5065246;28;20024;-74
2021/05/22 02:53:53;;;;;;;3.95;1.13;;;;;15.60;100131.00;;;;5065814;28;20036;-72
2021/05/22 02:56:21;;;;;;;1.77;1.38;;;;;15.60;100117.00;;;;5065775;28;20479;-72
2021/05/22 02:58:50;;;;;;;10.75;1.67;;;;;15.60;100098.00;;;;5064425;28;20415;-72
2021/05/22 03:01:17;;;;;;;3.50;1.45;;;;;15.60;100091.00;;;;5066101;28;20688;-74
2021/05/22 03:03:45;;;;;;;6.47;1.40;;;;;15.50;100080.00;;;;5066171;28;20066;-74
2021/05/22 03:06:12;;;;;;;3.08;1.00;;;;;15.50;100077.00;;;;5066010;28;20029;-76
2021/05/22 03:08:46;;;;;;;1.10;0.77;;;;;15.60;100102.00;;;;5066011;28;21185;-75
2021/05/22 03:11:15;;;;;;;1.60;0.90;;;;;15.50;100090.00;;;;5066376;28;20108;-71
2021/05/22 03:13:41;;;;;;;8.40;1.70;;;;;15.50;100069.00;;;;5067329;28;20029;-74
2021/05/22 03:16:08;;;;;;;7.65;1.90;;;;;15.50;100077.00;;;;5066174;28;20533;-74
2021/05/22 03:18:35;;;;;;;2.47;1.90;;;;;15.50;100068.00;;;;5065341;28;20028;-72
2021/05/22 03:21:02;;;;;;;2.00;0.95;;;;;15.50;100093.00;;;;5065368;28;20036;-73
2021/05/22 03:23:28;;;;;;;1.67;0.85;;;;;15.50;100097.00;;;;5065796;28;20029;-70
2021/05/22 03:25:55;;;;;;;1.50;0.60;;;;;15.50;100090.00;;;;5066215;28;20455;-70
2021/05/22 03:28:22;;;;;;;0.98;0.68;;;;;15.50;100109.00;;;;5065688;28;20046;-74
2021/05/22 03:30:49;;;;;;;1.17;0.77;;;;;15.50;100113.00;;;;5069882;28;20491;-75
2021/05/22 03:33:16;;;;;;;2.60;1.00;;;;;15.50;100119.00;;;;5069975;28;20427;-74
2021/05/22 03:35:43;;;;;;;6.57;0.82;;;;;15.50;100132.00;;;;5070106;28;20494;-73
2021/05/22 03:38:10;;;;;;;7.57;0.60;;;;;15.50;100132.00;;;;5070265;28;20028;-72
2021/05/22 03:40:36;;;;;;;3.53;0.60;;;;;15.50;100123.00;;;;5069479;28;20031;-72
2021/05/22 03:43:03;;;;;;;4.22;0.70;;;;;15.50;100118.00;;;;5070356;28;20531;-72
2021/05/22 03:45:29;;;;;;;0.82;0.50;;;;;15.50;100084.00;;;;5069227;28;20048;-73
2021/05/22 03:47:56;;;;;;;1.27;1.17;;;;;15.60;100036.00;;;;5068845;28;20047;-74
2021/05/22 03:50:22;;;;;;;2.00;0.77;;;;;15.60;100005.00;;;;5068637;28;20032;-74
2021/05/22 03:52:49;;;;;;;2.17;0.70;;;;;15.60;99999.00;;;;5068860;28;20033;-76
2021/05/22 03:55:16;;;;;;;1.05;0.68;;;;;15.60;100036.00;;;;5069383;28;20499;-74
2021/05/22 03:57:43;;;;;;;5.18;1.20;;;;;15.60;100027.00;;;;5069776;28;20036;-74
2021/05/22 04:00:11;;;;;;;0.40;0.40;;;;;15.60;100020.00;;;;5068959;28;20032;-73
2021/05/22 04:02:38;;;;;;;1.65;0.43;;;;;15.60;100022.00;;;;5069207;28;20124;-75
2021/05/22 04:05:06;;;;;;;1.52;0.68;;;;;15.60;100025.00;;;;5069290;28;20477;-73
2021/05/22 04:07:32;;;;;;;1.42;0.60;;;;;15.50;99995.00;;;;5068975;28;20136;-69
2021/05/22 04:09:59;;;;;;;1.42;0.65;;;;;15.60;99997.00;;;;5068833;28;20036;-74
2021/05/22 04:12:25;;;;;;;1.73;0.60;;;;;15.60;99997.00;;;;5069529;28;20135;-73
2021/05/22 04:14:52;;;;;;;0.90;0.68;;;;;15.60;99980.00;;;;5069004;28;20376;-74
2021/05/22 04:17:18;;;;;;;1.60;0.70;;;;;15.60;99944.00;;;;5068481;28;20032;-72
2021/05/22 04:19:45;;;;;;;1.02;0.90;;;;;15.60;99843.00;;;;5068801;28;20465;-72
2021/05/22 04:22:12;;;;;;;2.78;0.90;;;;;15.50;99755.00;;;;5069030;28;20086;-76
2021/05/22 04:24:38;;;;;;;1.20;0.80;;;;;15.50;99734.00;;;;5068952;28;20073;-73
2021/05/22 04:27:05;;;;;;;0.75;0.75;;;;;15.50;99724.00;;;;5068596;28;20040;-75
2021/05/22 04:29:32;;;;;;;0.50;0.50;;;;;15.60;99667.00;;;;5068382;28;20052;-72
2021/05/22 04:31:58;;;;;;;0.80;0.30;;;;;15.70;99621.00;;;;5068310;28;20111;-73
2021/05/22 04:34:25;;;;;;;0.82;0.82;;;;;15.80;99624.00;;;;5068684;28;20032;-72
2021/05/22 04:36:53;;;;;;;0.75;0.25;;;;;15.80;99624.00;;;;5068760;28;20025;-70
2021/05/22 04:39:20;;;;;;;1.27;0.20;;;;;15.80;99596.00;;;;5067845;28;20028;-73
2021/05/22 04:41:47;;;;;;;0.22;0.20;;;;;15.90;99561.00;;;;5068078;28;20029;-69
2021/05/22 04:44:13;;;;;;;0.43;0.20;;;;;15.90;99551.00;;;;5068467;28;20082;-74
2021/05/22 04:46:41;;;;;;;0.32;0.10;;;;;16.00;99542.00;;;;5068249;28;20093;-74
2021/05/22 04:49:07;;;;;;;0.17;0.17;;;;;16.00;99523.00;;;;5067922;28;20545;-71
2021/05/22 04:51:34;;;;;;;0.68;0.30;;;;;16.00;99526.00;;;;5068263;28;20082;-73
2021/05/22 04:54:06;;;;;;;0.88;0.30;;;;;15.90;99513.00;;;;5068241;28;20491;-72
2021/05/22 04:56:33;;;;;;;0.20;0.20;;;;;16.00;99489.00;;;;5067303;28;20029;-71
2021/05/22 04:59:00;;;;;;;0.22;0.10;;;;;16.00;99499.00;;;;5068176;28;20027;-75
2021/05/22 05:01:27;;;;;;;0.10;0.10;;;;;16.00;99510.00;;;;5068966;28;20044;-73
2021/05/22 05:03:54;;;;;;;0.20;0.20;;;;;16.10;99527.00;;;;5066992;28;20119;-71
2021/05/22 05:06:21;;;;;;;0.20;0.20;;;;;16.00;99523.00;;;;5068055;28;20066;-75
2021/05/22 05:08:47;;;;;;;0.43;0.30;;;;;16.10;99517.00;;;;5068034;28;20043;-74
2021/05/22 05:11:14;;;;;;;0.10;0.10;;;;;16.20;99526.00;;;;5067670;28;20058;-72
2021/05/22 05:13:41;;;;;;;1.27;0.20;;;;;16.00;99516.00;;;;5067506;28;20040;-74
2021/05/22 05:16:07;;;;;;;0.20;0.20;;;;;16.00;99505.00;;;;5067786;28;20088;-74
2021/05/22 05:18:34;;;;;;;0.40;0.30;;;;;16.00;99521.00;;;;5067780;28;20518;-75
2021/05/22 05:21:00;;;;;;;1.40;0.30;;;;;16.10;99538.00;;;;5068210;28;20178;-71
2021/05/22 05:23:27;;;;;;;2.15;0.40;;;;;16.10;99538.00;;;;5067949;28;20039;-71
2021/05/22 05:25:53;;;;;;;1.08;0.17;;;;;15.90;99574.00;;;;5067458;28;20487;-75
2021/05/22 05:28:21;;;;;;;0.55;0.10;;;;;16.10;99589.00;;;;5067407;28;20036;-73
2021/05/22 05:30:49;;;;;;;0.17;0.17;;;;;16.10;99606.00;;;;5067811;28;20028;-75
2021/05/22 05:33:15;;;;;;;0.85;0.20;;;;;16.00;99600.00;;;;5067373;28;20115;-73
2021/05/22 05:35:42;;;;;;;0.65;0.25;;;;;15.90;99594.00;;;;5067462;28;20475;-69
2021/05/22 05:38:08;;;;;;;0.40;0.20;;;;;15.90;99609.00;;;;5067427;28;20031;-71
2021/05/22 05:40:35;;;;;;;0.55;0.25;;;;;15.80;99626.00;;;;5066731;28;20024;-71
2021/05/22 05:43:09;;;;;;;0.40;0.20;;;;;15.70;99626.00;;;;5067845;28;20526;-72
2021/05/22 05:45:37;;;;;;;1.77;0.30;;;;;15.60;99613.00;;;;5067377;28;20510;-74
2021/05/22 05:48:05;;;;;;;1.23;0.40;;;;;15.60;99608.00;;;;5067060;28;20032;-74
2021/05/22 05:50:32;;;;;;;0.30;0.22;;;;;15.50;99602.00;;;;5066691;28;20044;-73
2021/05/22 05:52:58;;;;;;;3.20;0.47;;;;;15.50;99596.00;;;;5066447;28;20029;-73
2021/05/22 05:55:26;;;;;;;3.38;0.30;;;;;15.40;99596.00;;;;5067170;28;20541;-74
2021/05/22 05:57:55;;;;;;;5.53;0.28;;;;;15.30;99609.00;;;;5066925;28;20032;-71
2021/05/22 06:00:23;;;;;;;0.63;0.32;;;;;15.20;99615.00;;;;5067659;28;20103;-70
2021/05/22 06:02:50;;;;;;;3.33;0.43;;;;;15.20;99646.00;;;;5067685;28;20032;-71
2021/05/22 06:05:17;;;;;;;1.20;0.50;;;;;15.10;99663.00;;;;5067043;28;20036;-72
2021/05/22 06:07:44;;;;;;;1.33;0.82;;;;;15.10;99678.00;;;;5066353;28;20055;-74
2021/05/22 06:10:12;;;;;;;0.75;0.40;;;;;15.00;99704.00;;;;5066959;28;20105;-73
2021/05/22 06:12:40;;;;;;;0.68;0.45;;;;;15.00;99703.00;;;;5066739;28;20103;-71
2021/05/22 06:17:44;;;;;;;1.10;0.73;;;;;15.00;99711.00;;;;5066442;28;20475;-69
2021/05/22 06:20:12;;;;;;;4.60;0.65;;;;;15.00;99701.00;;;;5066185;28;20082;-75
2021/05/22 06:22:39;;;;;;;2.25;0.70;;;;;14.90;99712.00;;;;5066101;28;20036;-69
2021/05/22 06:25:08;;;;;;;3.25;0.80;;;;;14.90;99719.00;;;;5066825;28;20387;-76
2021/05/22 06:27:35;;;;;;;2.80;0.50;;;;;14.80;99733.00;;;;5066198;28;20403;-72
2021/05/22 06:30:01;;;;;;;1.65;0.63;;;;;14.70;99725.00;;;;5066567;28;20085;-71
2021/05/22 06:32:29;;;;;;;3.97;0.60;;;;;14.80;99728.00;;;;5066367;28;20029;-73
2021/05/22 06:34:55;;;;;;;1.27;0.65;;;;;14.80;99723.00;;;;5065846;28;20036;-69
2021/05/22 06:37:23;;;;;;;11.43;0.77;;;;;14.80;99719.00;;;;5065860;28;20040;-75
2021/05/22 06:39:50;;;;;;;1.08;0.60;;;;;14.80;99711.00;;;;5065930;28;20030;-74
2021/05/22 06:42:16;;;;;;;2.80;0.50;;;;;14.80;99716.00;;;;5066556;28;20377;-69
2021/05/22 06:44:51;;;;;;;1.13;0.40;;;;;14.80;99706.00;;;;5065911;28;20024;-70
2021/05/22 06:47:18;;;;;;;0.50;0.50;;;;;14.70;99696.00;;;;5066122;28;20032;-73
2021/05/22 06:49:44;;;;;;;1.00;0.57;;;;;14.70;99713.00;;;;5066325;28;20033;-74
2021/05/22 06:52:11;;;;;;;1.20;0.60;;;;;14.60;99718.00;;;;5065953;28;20157;-72
2021/05/22 06:54:38;;;;;;;5.18;0.68;;;;;14.70;99722.00;;;;5066286;28;20028;-69
2021/05/22 06:57:04;;;;;;;5.55;0.75;;;;;14.70;99716.00;;;;5066533;28;20419;-73
2021/05/22 06:59:31;;;;;;;6.40;0.98;;;;;14.60;99702.00;;;;5066258;28;20463;-71
2021/05/22 07:01:57;;;;;;;3.70;1.20;;;;;14.70;99688.00;;;;5065473;28;20074;-69
2021/05/22 07:04:24;;;;;;;1.55;0.77;;;;;14.70;99715.00;;;;5065952;28;20024;-71
2021/05/22 07:06:51;;;;;;;4.68;0.70;;;;;14.70;99707.00;;;;5065893;28;20059;-72
2021/05/22 07:09:18;;;;;;;4.35;0.80;;;;;14.70;99713.00;;;;5066111;28;20149;-72
2021/05/22 07:11:44;;;;;;;3.90;0.77;;;;;14.60;99718.00;;;;5065629;28;20133;-71
2021/05/22 07:14:11;;;;;;;4.53;0.80;;;;;14.60;99720.00;;;;5065605;28;20403;-75
2021/05/22 07:16:37;;;;;;;5.57;0.68;;;;;14.60;99723.00;;;;5065837;28;20032;-72
2021/05/22 07:19:04;;;;;;;4.53;0.65;;;;;14.60;99734.00;;;;5066097;28;20043;-70
2021/05/22 07:21:30;;;;;;;4.40;0.50;;;;;14.50;99745.00;;;;5065987;28;20060;-72
2021/05/22 07:23:57;;;;;;;3.33;0.70;;;;;14.50;99756.00;;;;5065663;28;20037;-74
2021/05/22 07:26:23;;;;;;;7.40;0.70;;;;;14.50;99740.00;;;;5065735;28;20039;-74
2021/05/22 07:28:52;;;;;;;3.30;0.60;;;;;14.50;99731.00;;;;5064926;28;20510;-69
2021/05/22 07:31:19;;;;;;;2.45;0.50;;;;;14.40;99752.00;;;;5065732;28;20101;-76
2021/05/22 07:33:45;;;;;;;8.30;0.70;;;;;14.40;99755.00;;;;5066040;28;20020;-73
2021/05/22 07:36:12;;;;;;;4.03;0.77;;;;;14.30;99765.00;;;;5065907;28;20036;-71
2021/05/22 07:38:41;;;;;;;36.22;1.55;;;;;14.30;99775.00;;;;5065794;28;20214;-73
2021/05/22 07:41:08;;;;;;;3.17;0.80;;;;;14.30;99776.00;;;;5066072;28;20036;-70
2021/05/22 07:43:34;;;;;;;4.65;0.85;;;;;14.30;99779.00;;;;5065487;28;20033;-74
2021/05/22 07:46:01;;;;;;;1.15;0.85;;;;;14.20;99791.00;;;;5066075;28;20083;-73
2021/05/22 07:48:29;;;;;;;3.08;0.80;;;;;14.20;99783.00;;;;5065436;28;20031;-73
2021/05/22 07:50:56;;;;;;;5.75;0.70;;;;;14.20;99774.00;;;;5065498;28;20069;-73
2021/05/22 07:53:23;;;;;;;16.05;0.85;;;;;14.20;99796.00;;;;5065283;28;20031;-74
2021/05/22 07:55:49;;;;;;;46.05;1.98;;;;;14.20;99791.00;;;;5063767;28;20040;-73
2021/05/22 07:58:16;;;;;;;84.45;3.53;;;;;14.10;99787.00;;;;5065302;28;20029;-70
2021/05/22 08:00:46;;;;;;;1.63;1.15;;;;;14.20;99775.00;;;;5065620;28;20032;-69
2021/05/22 08:03:12;;;;;;;4.43;0.90;;;;;14.20;99778.00;;;;5065692;28;20029;-75
2021/05/22 08:05:39;;;;;;;2.30;0.80;;;;;14.10;99783.00;;;;5065712;28;20459;-72
2021/05/22 08:08:06;;;;;;;17.55;1.80;;;;;14.00;99783.00;;;;5065302;28;20048;-71
2021/05/22 08:10:33;;;;;;;1.63;1.10;;;;;14.10;99782.00;;;;5065167;28;20768;-70
2021/05/22 08:12:59;;;;;;;3.83;1.30;;;;;14.10;99770.00;;;;5065206;28;20032;-73
2021/05/22 08:15:26;;;;;;;8.45;1.20;;;;;14.00;99780.00;;;;5067423;28;20036;-71
2021/05/22 08:17:53;;;;;;;4.43;1.17;;;;;14.00;99782.00;;;;5069520;28;20028;-70
2021/05/22 08:20:20;;;;;;;7.60;1.27;;;;;14.00;99785.00;;;;5069095;28;20028;-73
2021/05/22 08:22:46;;;;;;;2.08;1.05;;;;;14.00;99764.00;;;;5068892;28;20029;-70
2021/05/22 08:25:13;;;;;;;4.38;1.10;;;;;14.00;99778.00;;;;5068756;28;20033;-70
2021/05/22 08:27:41;;;;;;;22.30;1.58;;;;;13.90;99775.00;;;;5069054;28;20108;-73
2021/05/22 08:30:10;;;;;;;40.88;2.17;;;;;13.90;99763.00;;;;5069302;28;20028;-74
2021/05/22 08:32:37;;;;;;;290.35;5.70;;;;;13.90;99761.00;;;;5068931;28;20028;-70
2021/05/22 08:35:06;;;;;;;135.95;3.58;;;;;14.00;99768.00;;;;5069241;28;20036;-75
2021/05/22 08:37:33;;;;;;;53.65;1.95;;;;;14.00;99769.00;;;;5068472;28;20039;-71
2021/05/22 08:40:03;;;;;;;48.92;1.88;;;;;14.00;99757.00;;;;5067915;28;20036;-74
2021/05/22 08:42:32;;;;;;;120.70;3.40;;;;;14.00;99760.00;;;;5068194;28;20029;-72
2021/05/22 08:45:08;;;;;;;121.70;3.35;;;;;14.00;99757.00;;;;5068663;28;20025;-74
2021/05/22 08:47:35;;;;;;;70.05;2.40;;;;;13.90;99740.00;;;;5066953;28;20032;-75
2021/05/22 08:50:05;;;;;;;65.65;2.15;;;;;13.90;99736.00;;;;5068954;28;20027;-73
2021/05/22 08:52:32;;;;;;;100.80;2.78;;;;;13.90;99724.00;;;;5068027;28;20031;-74
2021/05/22 08:54:58;;;;;;;181.13;4.13;;;;;13.80;99719.00;;;;5068897;28;20036;-72
2021/05/22 08:57:25;;;;;;;175.13;4.47;;;;;13.70;99711.00;;;;5068528;28;20035;-74
2021/05/22 08:59:52;;;;;;;159.73;4.60;;;;;13.60;99712.00;;;;5068654;28;20518;-73
2021/05/22 09:02:24;;;;;;;229.55;6.78;;;;;13.70;99712.00;;;;5068062;28;20552;-71
2021/05/22 09:05:15;;;;;;;153.23;5.57;;;;;13.70;99716.00;;;;5067528;28;20395;-73
2021/05/22 09:07:45;;;;;;;57.92;3.25;;;;;13.70;99725.00;;;;5067671;28;20058;-72
2021/05/22 09:10:27;;;;;;;60.70;3.17;;;;;13.70;99729.00;;;;5066642;28;20037;-70
2021/05/22 09:12:59;;;;;;;85.03;5.35;;;;;13.70;99714.00;;;;5068567;28;20471;-72
2021/05/22 09:15:37;;;;;;;28.77;3.78;;;;;13.70;99714.00;;;;5067910;28;20032;-68
2021/05/22 09:18:11;;;;;;;36.72;4.00;;;;;13.60;99714.00;;;;5067819;28;20029;-71
2021/05/22 09:20:49;;;;;;;302.80;8.48;;;;;13.60;99712.00;;;;5067672;28;20064;-76
2021/05/22 09:23:23;;;;;;;467.77;10.90;;;;;13.50;99720.00;;;;5067667;28;20032;-74
2021/05/22 09:25:55;;;;;;;32.30;3.30;;;;;13.40;99714.00;;;;5066574;28;20028;-73
2021/05/22 09:28:31;;;;;;;422.60;11.10;;;;;13.30;99734.00;;;;5065912;28;20073;-73
2021/05/22 09:30:58;;;;;;;88.70;4.80;;;;;13.40;99737.00;;;;5065764;28;20025;-73
2021/05/22 09:33:28;;;;;;;68.30;3.40;;;;;13.40;99728.00;;;;5066833;28;20502;-69
2021/05/22 09:35:58;;;;;;;25.83;3.20;;;;;13.30;99741.00;;;;5067873;28;20032;-71
2021/05/22 09:38:41;;;;;;;101.43;5.63;;;;;13.20;99772.00;;;;5067874;28;20074;-70
2021/05/22 09:41:27;;;;;;;47.50;3.78;;;;;13.20;99789.00;;;;5067576;28;20099;-70
2021/05/22 09:44:12;;;;;;;5.05;2.83;;;;;13.30;99792.00;;;;5067099;28;20055;-68
2021/05/22 09:46:44;;;;;;;6.97;3.20;;;;;13.30;99778.00;;;;5067088;28;20514;-74
2021/05/22 09:49:23;;;;;;;29.95;3.80;;;;;13.30;99788.00;;;;5067578;28;20025;-76
2021/05/22 09:51:58;;;;;;;8.63;2.95;;;;;13.30;99782.00;;;;5067040;28;20024;-73
2021/05/22 09:54:45;;;;;;;8.98;3.22;;;;;13.20;99788.00;;;;5066938;28;20029;-72
2021/05/22 09:57:16;;;;;;;13.27;2.45;;;;;13.20;99784.00;;;;5066809;28;20028;-72
2021/05/22 10:00:11;;;;;;;6.85;2.30;;;;;13.10;99812.00;;;;5067378;28;20111;-71
2021/05/22 10:02:43;;;;;;;12.18;2.50;;;;;13.20;99796.00;;;;5059741;28;20094;-69
2021/05/22 10:05:17;;;;;;;40.97;2.35;;;;;13.20;99796.00;;;;5065907;28;20756;-69
2021/05/22 10:07:45;;;;;;;16.42;1.88;;;;;13.20;99796.00;;;;5066391;28;20045;-74
2021/05/22 10:10:14;;;;;;;10.23;2.40;;;;;13.20;99803.00;;;;5066315;28;20502;-70
2021/05/22 10:12:43;;;;;;;16.08;1.92;;;;;13.10;99802.00;;;;5067050;28;20483;-72
2021/05/22 10:15:12;;;;;;;24.15;2.10;;;;;13.00;99824.00;;;;5066909;28;20024;-69
2021/05/22 10:17:40;;;;;;;47.78;2.85;;;;;13.10;99819.00;;;;5066338;28;20031;-70
2021/05/22 10:20:07;;;;;;;43.95;2.15;;;;;13.20;99839.00;;;;5066163;28;20135;-68
2021/05/22 10:22:34;;;;;;;226.48;7.63;;;;;13.20;99826.00;;;;5066493;28;20036;-71
2021/05/22 10:25:06;;;;;;;270.25;6.93;;;;;13.10;99825.00;;;;5067135;28;20075;-74
2021/05/22 10:27:36;;;;;;;103.15;4.95;;;;;13.10;99826.00;;;;5066902;28;20016;-73
2021/05/22 10:30:05;;;;;;;17.42;2.58;;;;;13.20;99810.00;;;;5066125;28;20090;-71
2021/05/22 10:32:32;;;;;;;23.35;3.30;;;;;13.30;99834.00;;;;5066510;28;20119;-72
2021/05/22 10:35:10;;;;;;;6.18;2.40;;;;;13.40;99823.00;;;;5066548;28;20471;-74
2021/05/22 10:37:47;;;;;;;8.98;2.22;;;;;13.40;99824.00;;;;5066322;28;20078;-71
2021/05/22 10:40:16;;;;;;;14.65;2.60;;;;;13.60;99812.00;;;;5066186;28;20075;-74
2021/05/22 10:42:53;;;;;;;17.48;2.88;;;;;14.50;99773.00;;;;5066296;28;20059;-70
2021/05/22 10:45:32;;;;;;;31.92;2.35;;;;;15.30;99755.00;;;;5067007;28;20024;-74
2021/05/22 10:48:04;;;;;;;34.05;3.55;;;;;16.30;99734.00;;;;5066054;28;20043;-72
2021/05/22 10:50:36;;;;;;;10.27;3.13;;;;;17.00;99758.00;;;;5065625;28;20646;-70
2021/05/22 10:53:28;;;;;;;5.53;1.73;;;;;17.10;99769.00;;;;5065778;28;20080;-70
2021/05/22 10:56:17;;;;;;;22.63;5.60;;;;;17.10;99772.00;;;;5066287;28;20115;-71
2021/05/22 10:58:59;;;;;;;6.05;4.05;;;;;17.50;99736.00;;;;5065900;28;20107;-70
2021/05/22 11:01:26;;;;;;;4.05;3.00;;;;;16.90;99761.00;;;;5065758;28;20024;-70
2021/05/22 11:04:15;;;;;;;9.80;4.60;;;;;17.20;99748.00;;;;5065801;28;20441;-71
2021/05/22 11:06:59;;;;;;;6.13;3.33;;;;;17.70;99721.00;;;;5065856;28;20526;-70
2021/05/22 11:09:29;;;;;;;5.93;3.90;;;;;18.20;99719.00;;;;5066186;28;20068;-71
2021/05/22 11:12:00;;;;;;;4.90;1.77;;;;;18.60;99742.00;;;;5065916;28;20163;-71
2021/05/22 11:14:47;;;;;;;1.75;1.50;;;;;20.10;99678.00;;;;5066036;28;20059;-71
2021/05/22 11:17:23;;;;;;;3.78;1.20;;;;;20.90;99669.00;;;;5065030;28;20035;-74
2021/05/22 11:20:02;;;;;;;4.45;1.13;;;;;21.60;99678.00;;;;5065342;28;20063;-72
2021/05/22 11:22:55;;;;;;;6.03;1.48;;;;;21.60;99698.00;;;;5065919;28;20028;-75
2021/05/22 11:25:23;;;;;;;5.00;1.48;;;;;21.80;99679.00;;;;5065239;28;20028;-71
2021/05/22 11:27:58;;;;;;;3.50;1.77;;;;;21.90;99681.00;;;;5065351;28;20508;-75
2021/05/22 11:30:28;;;;;;;5.10;1.88;;;;;22.10;99659.00;;;;5065497;28;20024;-74
2021/05/22 11:32:57;;;;;;;2.50;1.40;;;;;22.30;99665.00;;;;5065671;28;20078;-71
2021/05/22 11:35:34;;;;;;;5.13;1.70;;;;;22.50;99678.00;;;;5065254;28;20033;-72
2021/05/22 11:38:13;;;;;;;3.80;1.20;;;;;23.20;99689.00;;;;5065821;28;20028;-71
2021/05/22 11:40:40;;;;;;;2.25;1.30;;;;;22.80;99710.00;;;;5064642;28;20037;-73
2021/05/22 11:43:30;;;;;;;3.78;1.38;;;;;23.70;99711.00;;;;5065910;28;20025;-75
2021/05/22 11:46:04;;;;;;;1.27;1.10;;;;;23.30;99737.00;;;;5065060;28;20111;-71
2021/05/22 11:48:35;;;;;;;1.85;0.90;;;;;23.40;99732.00;;;;5064153;28;20028;-70
2021/05/22 11:51:15;;;;;;;3.55;1.10;;;;;24.20;99710.00;;;;5068539;28;20422;-74
2021/05/22 11:53:48;;;;;;;4.47;1.33;;;;;24.40;99711.00;;;;5068098;28;20645;-75
2021/05/22 11:56:16;;;;;;;7.70;2.95;;;;;24.20;99733.00;;;;5069273;28;20078;-71
2021/05/22 11:58:54;;;;;;;5.88;2.67;;;;;24.60;99723.00;;;;5068692;28;20544;-72
2021/05/22 12:01:26;;;;;;;3.70;1.40;;;;;24.60;99727.00;;;;5068280;28;20082;-74
2021/05/22 12:03:55;;;;;;;2.95;2.05;;;;;24.90;99758.00;;;;5069112;28;20431;-71
2021/05/22 12:06:27;;;;;;;4.82;1.65;;;;;25.40;99769.00;;;;5068861;28;20025;-72
2021/05/22 12:09:22;;;;;;;3.63;1.42;;;;;26.20;99749.00;;;;5068647;28;20124;-73
2021/05/22 12:12:08;;;;;;;2.17;1.27;;;;;26.10;99753.00;;;;5068789;28;20058;-73
2021/05/22 12:14:46;;;;;;;1.35;1.05;;;;;26.70;99754.00;;;;5068583;28;20020;-73
2021/05/22 12:17:19;;;;;;;2.92;1.20;;;;;26.00;99774.00;;;;5068274;28;20028;-72
2021/05/22 12:19:50;;;;;;;2.47;0.80;;;;;26.10;99752.00;;;;5068668;28;20052;-74
2021/05/22 12:22:25;;;;;;;1.52;0.88;;;;;25.90;99764.00;;;;5068500;28;20164;-75
2021/05/22 12:24:55;;;;;;;2.50;1.20;;;;;26.10;99777.00;;;;5068174;28;20024;-72